Terminal Aerodrome Forecast
Issued by NWS Charleston, WV

Home | Current Version | Previous Version | Text Only | Print | Product List | Glossary On
Versions: 1 2 3 4 5 6 7 8 9 10 11 12 13 14 15 16 17 18 19 20 21
250
FTUS41 KRLX 281453 AAA
TAFCRW
TAF AMD
KCRW 281453Z 2815/2912 00000KT 6SM BR OVC015
      TEMPO 2815/2818 BKN025
     FM281800 21005KT P6SM OVC008
      TEMPO 2818/2820 2SM TSRA OVC003CB
     FM282000 26005KT P6SM OVC025
      TEMPO 2820/2821 1SM TSRA OVC015CB
     FM282100 27005KT 2SM SHRA VCTS OVC025CB
     FM290500 30005KT P6SM BKN025=

USA.gov is the U.S. government's official web portal to all federal, state and local government web resources and services.